sensor_id;sensor_type;location;lat;lon;timestamp;temperature;humidity
42031;DHT22;27709;52.036;5.906;2023-03-20T00:00:20;10.50;99.90
42031;DHT22;27709;52.036;5.906;2023-03-20T00:02:47;10.40;99.90
42031;DHT22;27709;52.036;5.906;2023-03-20T00:05:19;10.40;99.90
42031;DHT22;27709;52.036;5.906;2023-03-20T00:07:46;10.40;99.90
42031;DHT22;27709;52.036;5.906;2023-03-20T00:10:12;10.40;99.90
42031;DHT22;27709;52.036;5.906;2023-03-20T00:12:38;10.30;99.90
42031;DHT22;27709;52.036;5.906;2023-03-20T00:15:04;10.30;99.90
42031;DHT22;27709;52.036;5.906;2023-03-20T00:17:31;10.30;99.90
42031;DHT22;27709;52.036;5.906;2023-03-20T00:19:56;10.30;99.90
42031;DHT22;27709;52.036;5.906;2023-03-20T00:22:21;10.20;99.90
42031;DHT22;27709;52.036;5.906;2023-03-20T00:24:47;10.20;99.90
42031;DHT22;27709;52.036;5.906;2023-03-20T00:27:13;10.20;99.90
42031;DHT22;27709;52.036;5.906;2023-03-20T00:29:40;10.20;99.90
42031;DHT22;27709;52.036;5.906;2023-03-20T00:32:10;10.20;99.90
42031;DHT22;27709;52.036;5.906;2023-03-20T00:34:36;10.20;99.90
42031;DHT22;27709;52.036;5.906;2023-03-20T00:37:02;10.20;99.90
42031;DHT22;27709;52.036;5.906;2023-03-20T00:39:28;10.20;99.90
42031;DHT22;27709;52.036;5.906;2023-03-20T00:41:55;10.20;99.90
42031;DHT22;27709;52.036;5.906;2023-03-20T00:44:26;10.30;99.90
42031;DHT22;27709;52.036;5.906;2023-03-20T00:46:53;10.30;99.90
42031;DHT22;27709;52.036;5.906;2023-03-20T00:49:23;10.20;99.90
42031;DHT22;27709;52.036;5.906;2023-03-20T00:51:49;10.20;99.90
42031;DHT22;27709;52.036;5.906;2023-03-20T00:54:15;10.20;99.90
42031;DHT22;27709;52.036;5.906;2023-03-20T00:56:45;10.10;99.90
42031;DHT22;27709;52.036;5.906;2023-03-20T00:59:16;10.10;99.90
42031;DHT22;27709;52.036;5.906;2023-03-20T01:01:42;10.10;99.90
42031;DHT22;27709;52.036;5.906;2023-03-20T01:04:10;10.10;99.90
42031;DHT22;27709;52.036;5.906;2023-03-20T01:06:36;10.10;99.90
42031;DHT22;27709;52.036;5.906;2023-03-20T01:09:01;10.10;99.90
42031;DHT22;27709;52.036;5.906;2023-03-20T01:11:28;10.10;99.90
42031;DHT22;27709;52.036;5.906;2023-03-20T01:13:53;10.10;99.90
42031;DHT22;27709;52.036;5.906;2023-03-20T01:16:20;10.10;99.90
42031;DHT22;27709;52.036;5.906;2023-03-20T01:18:46;10.10;99.90
42031;DHT22;27709;52.036;5.906;2023-03-20T01:21:12;10.10;99.90
42031;DHT22;27709;52.036;5.906;2023-03-20T01:23:38;10.20;99.90
42031;DHT22;27709;52.036;5.906;2023-03-20T01:26:03;10.20;99.90
42031;DHT22;27709;52.036;5.906;2023-03-20T01:28:29;10.20;99.90
42031;DHT22;27709;52.036;5.906;2023-03-20T01:30:54;10.10;99.90
42031;DHT22;27709;52.036;5.906;2023-03-20T01:33:21;10.10;99.90
42031;DHT22;27709;52.036;5.906;2023-03-20T01:35:47;10.10;99.90
42031;DHT22;27709;52.036;5.906;2023-03-20T01:38:20;10.20;99.90
42031;DHT22;27709;52.036;5.906;2023-03-20T01:43:21;10.10;99.90
42031;DHT22;27709;52.036;5.906;2023-03-20T01:45:49;10.10;99.90
42031;DHT22;27709;52.036;5.906;2023-03-20T01:48:17;10.10;99.90
42031;DHT22;27709;52.036;5.906;2023-03-20T01:50:43;10.10;99.90
42031;DHT22;27709;52.036;5.906;2023-03-20T01:55:34;10.10;99.90
42031;DHT22;27709;52.036;5.906;2023-03-20T01:58:02;10.10;99.90
42031;DHT22;27709;52.036;5.906;2023-03-20T02:00:28;10.10;99.90
42031;DHT22;27709;52.036;5.906;2023-03-20T02:02:53;10.00;99.90
42031;DHT22;27709;52.036;5.906;2023-03-20T02:05:19;10.00;99.90
42031;DHT22;27709;52.036;5.906;2023-03-20T02:08:30;10.00;99.90
42031;DHT22;27709;52.036;5.906;2023-03-20T02:10:36;10.00;99.90
42031;DHT22;27709;52.036;5.906;2023-03-20T02:13:02;10.00;99.90
42031;DHT22;27709;52.036;5.906;2023-03-20T02:15:29;10.00;99.90
42031;DHT22;27709;52.036;5.906;2023-03-20T02:17:54;10.00;99.90
42031;DHT22;27709;52.036;5.906;2023-03-20T02:25:27;9.90;99.90
42031;DHT22;27709;52.036;5.906;2023-03-20T02:30:37;9.90;99.90
42031;DHT22;27709;52.036;5.906;2023-03-20T02:38:03;9.90;99.90
42031;DHT22;27709;52.036;5.906;2023-03-20T02:46:01;9.90;99.90
42031;DHT22;27709;52.036;5.906;2023-03-20T02:51:07;9.80;99.90
42031;DHT22;27709;52.036;5.906;2023-03-20T02:53:38;9.80;99.90
42031;DHT22;27709;52.036;5.906;2023-03-20T02:56:27;9.80;99.90
42031;DHT22;27709;52.036;5.906;2023-03-20T02:59:11;9.80;99.90
42031;DHT22;27709;52.036;5.906;2023-03-20T03:01:40;9.70;99.90
42031;DHT22;27709;52.036;5.906;2023-03-20T03:04:16;9.70;99.90
42031;DHT22;27709;52.036;5.906;2023-03-20T03:06:44;9.70;99.90
42031;DHT22;27709;52.036;5.906;2023-03-20T03:09:15;9.70;99.90
42031;DHT22;27709;52.036;5.906;2023-03-20T03:11:42;9.70;99.90
42031;DHT22;27709;52.036;5.906;2023-03-20T03:14:13;9.70;99.90
42031;DHT22;27709;52.036;5.906;2023-03-20T03:16:40;9.70;99.90
42031;DHT22;27709;52.036;5.906;2023-03-20T03:19:13;9.70;99.90
42031;DHT22;27709;52.036;5.906;2023-03-20T03:21:40;9.70;99.90
42031;DHT22;27709;52.036;5.906;2023-03-20T03:24:06;9.60;99.90
42031;DHT22;27709;52.036;5.906;2023-03-20T03:26:33;9.60;99.90
42031;DHT22;27709;52.036;5.906;2023-03-20T03:29:05;9.60;99.90
42031;DHT22;27709;52.036;5.906;2023-03-20T03:31:32;9.60;99.90
42031;DHT22;27709;52.036;5.906;2023-03-20T03:33:58;9.60;99.90
42031;DHT22;27709;52.036;5.906;2023-03-20T03:36:27;9.60;99.90
42031;DHT22;27709;52.036;5.906;2023-03-20T03:39:09;9.50;99.90
42031;DHT22;27709;52.036;5.906;2023-03-20T03:41:38;9.50;99.90
42031;DHT22;27709;52.036;5.906;2023-03-20T03:49:04;9.40;99.90
42031;DHT22;27709;52.036;5.906;2023-03-20T03:51:31;9.30;99.90
42031;DHT22;27709;52.036;5.906;2023-03-20T03:54:09;9.30;99.90
42031;DHT22;27709;52.036;5.906;2023-03-20T03:56:35;9.30;99.90
42031;DHT22;27709;52.036;5.906;2023-03-20T03:59:03;9.20;99.90
42031;DHT22;27709;52.036;5.906;2023-03-20T04:01:30;9.20;99.90
42031;DHT22;27709;52.036;5.906;2023-03-20T04:04:00;9.20;99.90
42031;DHT22;27709;52.036;5.906;2023-03-20T04:06:27;9.20;99.90
42031;DHT22;27709;52.036;5.906;2023-03-20T04:08:53;9.10;99.90
42031;DHT22;27709;52.036;5.906;2023-03-20T04:11:19;9.10;99.90
42031;DHT22;27709;52.036;5.906;2023-03-20T04:13:46;9.00;99.90
42031;DHT22;27709;52.036;5.906;2023-03-20T04:16:12;9.00;99.90
42031;DHT22;27709;52.036;5.906;2023-03-20T04:18:40;9.00;99.90
42031;DHT22;27709;52.036;5.906;2023-03-20T04:21:06;9.00;99.90
42031;DHT22;27709;52.036;5.906;2023-03-20T04:23:32;8.90;99.90
42031;DHT22;27709;52.036;5.906;2023-03-20T04:25:58;8.90;99.90
42031;DHT22;27709;52.036;5.906;2023-03-20T04:28:23;8.90;99.90
42031;DHT22;27709;52.036;5.906;2023-03-20T04:30:52;8.90;99.90
42031;DHT22;27709;52.036;5.906;2023-03-20T04:33:18;8.90;99.90
42031;DHT22;27709;52.036;5.906;2023-03-20T04:35:43;8.90;99.90
42031;DHT22;27709;52.036;5.906;2023-03-20T04:38:09;8.80;99.90
42031;DHT22;27709;52.036;5.906;2023-03-20T04:40:35;8.80;99.90
42031;DHT22;27709;52.036;5.906;2023-03-20T04:43:01;8.80;99.90
42031;DHT22;27709;52.036;5.906;2023-03-20T04:45:26;8.80;99.90
42031;DHT22;27709;52.036;5.906;2023-03-20T04:47:52;8.70;99.90
42031;DHT22;27709;52.036;5.906;2023-03-20T04:50:17;8.70;99.90
42031;DHT22;27709;52.036;5.906;2023-03-20T04:52:43;8.70;99.90
42031;DHT22;27709;52.036;5.906;2023-03-20T04:55:08;8.70;99.90
42031;DHT22;27709;52.036;5.906;2023-03-20T04:57:34;8.70;99.90
42031;DHT22;27709;52.036;5.906;2023-03-20T04:59:59;8.70;99.90
42031;DHT22;27709;52.036;5.906;2023-03-20T05:02:25;8.70;99.90
42031;DHT22;27709;52.036;5.906;2023-03-20T05:04:52;8.70;99.90
42031;DHT22;27709;52.036;5.906;2023-03-20T05:07:18;8.70;99.90
42031;DHT22;27709;52.036;5.906;2023-03-20T05:09:43;8.70;99.90
42031;DHT22;27709;52.036;5.906;2023-03-20T05:12:09;8.70;99.90
42031;DHT22;27709;52.036;5.906;2023-03-20T05:14:34;8.70;99.90
42031;DHT22;27709;52.036;5.906;2023-03-20T05:17:00;8.60;99.90
42031;DHT22;27709;52.036;5.906;2023-03-20T05:19:26;8.60;99.90
42031;DHT22;27709;52.036;5.906;2023-03-20T05:21:51;8.60;99.90
42031;DHT22;27709;52.036;5.906;2023-03-20T05:24:17;8.60;99.90
42031;DHT22;27709;52.036;5.906;2023-03-20T05:26:42;8.60;99.90
42031;DHT22;27709;52.036;5.906;2023-03-20T05:29:08;8.60;99.90
42031;DHT22;27709;52.036;5.906;2023-03-20T05:31:33;8.60;99.90
42031;DHT22;27709;52.036;5.906;2023-03-20T05:34:06;8.60;99.90
42031;DHT22;27709;52.036;5.906;2023-03-20T05:36:31;8.60;99.90
42031;DHT22;27709;52.036;5.906;2023-03-20T05:38:57;8.60;99.90
42031;DHT22;27709;52.036;5.906;2023-03-20T05:41:22;8.70;99.90
42031;DHT22;27709;52.036;5.906;2023-03-20T05:43:48;8.70;99.90
42031;DHT22;27709;52.036;5.906;2023-03-20T05:46:13;8.70;99.90
42031;DHT22;27709;52.036;5.906;2023-03-20T05:48:39;8.70;99.90
42031;DHT22;27709;52.036;5.906;2023-03-20T05:51:04;8.70;99.90
42031;DHT22;27709;52.036;5.906;2023-03-20T05:53:30;8.60;99.90
42031;DHT22;27709;52.036;5.906;2023-03-20T05:55:55;8.60;99.90
42031;DHT22;27709;52.036;5.906;2023-03-20T05:58:21;8.60;99.90
42031;DHT22;27709;52.036;5.906;2023-03-20T06:00:46;8.60;99.90
42031;DHT22;27709;52.036;5.906;2023-03-20T06:03:12;8.60;99.90
42031;DHT22;27709;52.036;5.906;2023-03-20T06:05:37;8.60;99.90
42031;DHT22;27709;52.036;5.906;2023-03-20T06:08:04;8.70;99.90
42031;DHT22;27709;52.036;5.906;2023-03-20T06:10:30;8.70;99.90
42031;DHT22;27709;52.036;5.906;2023-03-20T06:12:56;8.70;99.90
42031;DHT22;27709;52.036;5.906;2023-03-20T06:15:22;8.70;99.90
42031;DHT22;27709;52.036;5.906;2023-03-20T06:17:48;8.70;99.90
42031;DHT22;27709;52.036;5.906;2023-03-20T06:20:13;8.80;99.90
42031;DHT22;27709;52.036;5.906;2023-03-20T06:22:39;8.80;99.90
42031;DHT22;27709;52.036;5.906;2023-03-20T06:25:04;8.80;99.90
42031;DHT22;27709;52.036;5.906;2023-03-20T06:27:30;8.90;99.90
42031;DHT22;27709;52.036;5.906;2023-03-20T06:29:56;8.90;99.90
42031;DHT22;27709;52.036;5.906;2023-03-20T06:32:21;9.00;99.90
42031;DHT22;27709;52.036;5.906;2023-03-20T06:34:47;9.00;99.90
42031;DHT22;27709;52.036;5.906;2023-03-20T06:37:13;9.10;99.90
42031;DHT22;27709;52.036;5.906;2023-03-20T06:39:38;9.10;99.90
42031;DHT22;27709;52.036;5.906;2023-03-20T06:42:04;9.10;99.90
42031;DHT22;27709;52.036;5.906;2023-03-20T06:44:29;9.20;99.90
42031;DHT22;27709;52.036;5.906;2023-03-20T06:46:55;9.30;99.90
42031;DHT22;27709;52.036;5.906;2023-03-20T06:49:20;9.30;99.90
42031;DHT22;27709;52.036;5.906;2023-03-20T06:51:46;9.30;99.90
42031;DHT22;27709;52.036;5.906;2023-03-20T06:54:12;9.30;99.90
42031;DHT22;27709;52.036;5.906;2023-03-20T06:56:38;9.20;99.90
42031;DHT22;27709;52.036;5.906;2023-03-20T06:59:03;9.10;99.90
42031;DHT22;27709;52.036;5.906;2023-03-20T07:01:29;9.10;99.90
42031;DHT22;27709;52.036;5.906;2023-03-20T07:03:54;9.10;99.90
42031;DHT22;27709;52.036;5.906;2023-03-20T07:06:20;9.00;99.90
42031;DHT22;27709;52.036;5.906;2023-03-20T07:08:45;9.10;99.90
42031;DHT22;27709;52.036;5.906;2023-03-20T07:11:12;9.20;99.90
42031;DHT22;27709;52.036;5.906;2023-03-20T07:13:38;9.30;99.90
42031;DHT22;27709;52.036;5.906;2023-03-20T07:16:04;9.40;99.90
42031;DHT22;27709;52.036;5.906;2023-03-20T07:18:29;9.40;99.90
42031;DHT22;27709;52.036;5.906;2023-03-20T07:20:59;9.30;99.90
42031;DHT22;27709;52.036;5.906;2023-03-20T07:23:26;9.30;99.90
42031;DHT22;27709;52.036;5.906;2023-03-20T07:25:51;9.40;99.90
42031;DHT22;27709;52.036;5.906;2023-03-20T07:28:16;9.40;99.90
42031;DHT22;27709;52.036;5.906;2023-03-20T07:30:42;9.50;99.90
42031;DHT22;27709;52.036;5.906;2023-03-20T07:33:08;9.50;99.90
42031;DHT22;27709;52.036;5.906;2023-03-20T07:35:33;9.60;99.90
42031;DHT22;27709;52.036;5.906;2023-03-20T07:38:04;9.70;99.90
42031;DHT22;27709;52.036;5.906;2023-03-20T07:40:29;9.60;99.90
42031;DHT22;27709;52.036;5.906;2023-03-20T07:42:55;9.60;99.90
42031;DHT22;27709;52.036;5.906;2023-03-20T07:45:20;9.60;99.90
42031;DHT22;27709;52.036;5.906;2023-03-20T07:47:55;9.60;99.90
42031;DHT22;27709;52.036;5.906;2023-03-20T07:50:21;9.60;99.90
42031;DHT22;27709;52.036;5.906;2023-03-20T07:52:47;9.60;99.90
42031;DHT22;27709;52.036;5.906;2023-03-20T07:55:13;9.60;99.90
42031;DHT22;27709;52.036;5.906;2023-03-20T07:57:39;9.60;99.90
42031;DHT22;27709;52.036;5.906;2023-03-20T08:00:04;9.60;99.90
42031;DHT22;27709;52.036;5.906;2023-03-20T08:02:30;9.60;99.90
42031;DHT22;27709;52.036;5.906;2023-03-20T08:04:56;9.60;99.90
42031;DHT22;27709;52.036;5.906;2023-03-20T08:07:22;9.60;99.90
42031;DHT22;27709;52.036;5.906;2023-03-20T08:09:47;9.60;99.90
42031;DHT22;27709;52.036;5.906;2023-03-20T08:12:13;9.60;99.90
42031;DHT22;27709;52.036;5.906;2023-03-20T08:14:38;9.60;99.90
42031;DHT22;27709;52.036;5.906;2023-03-20T08:17:04;9.60;99.90
42031;DHT22;27709;52.036;5.906;2023-03-20T08:19:30;9.60;99.90
42031;DHT22;27709;52.036;5.906;2023-03-20T08:21:55;9.60;99.90
42031;DHT22;27709;52.036;5.906;2023-03-20T08:24:21;9.60;99.90
42031;DHT22;27709;52.036;5.906;2023-03-20T08:26:46;9.60;99.90
42031;DHT22;27709;52.036;5.906;2023-03-20T08:29:12;9.70;99.90
42031;DHT22;27709;52.036;5.906;2023-03-20T08:31:38;9.60;99.90
42031;DHT22;27709;52.036;5.906;2023-03-20T08:34:04;9.70;99.90
42031;DHT22;27709;52.036;5.906;2023-03-20T08:36:30;9.70;99.90
42031;DHT22;27709;52.036;5.906;2023-03-20T08:38:55;9.70;99.90
42031;DHT22;27709;52.036;5.906;2023-03-20T08:41:21;9.70;99.90
42031;DHT22;27709;52.036;5.906;2023-03-20T08:43:46;9.70;99.90
42031;DHT22;27709;52.036;5.906;2023-03-20T08:46:12;9.70;99.90
42031;DHT22;27709;52.036;5.906;2023-03-20T08:48:37;9.80;99.90
42031;DHT22;27709;52.036;5.906;2023-03-20T08:51:03;9.80;99.90
42031;DHT22;27709;52.036;5.906;2023-03-20T08:53:28;9.80;99.90
42031;DHT22;27709;52.036;5.906;2023-03-20T08:55:54;9.80;99.90
42031;DHT22;27709;52.036;5.906;2023-03-20T08:58:21;9.90;99.90
42031;DHT22;27709;52.036;5.906;2023-03-20T09:00:46;9.90;99.90
42031;DHT22;27709;52.036;5.906;2023-03-20T09:03:13;9.90;99.90
42031;DHT22;27709;52.036;5.906;2023-03-20T09:05:40;10.00;99.90
42031;DHT22;27709;52.036;5.906;2023-03-20T09:08:05;10.10;99.90
42031;DHT22;27709;52.036;5.906;2023-03-20T09:10:31;10.20;99.90
42031;DHT22;27709;52.036;5.906;2023-03-20T09:12:58;10.20;99.90
42031;DHT22;27709;52.036;5.906;2023-03-20T09:15:24;10.30;99.90
42031;DHT22;27709;52.036;5.906;2023-03-20T09:17:49;10.40;99.90
42031;DHT22;27709;52.036;5.906;2023-03-20T09:20:15;10.60;99.90
42031;DHT22;27709;52.036;5.906;2023-03-20T09:22:40;10.70;99.90
42031;DHT22;27709;52.036;5.906;2023-03-20T09:25:09;10.70;99.90
42031;DHT22;27709;52.036;5.906;2023-03-20T09:27:34;10.70;99.90
42031;DHT22;27709;52.036;5.906;2023-03-20T09:30:00;10.70;99.90
42031;DHT22;27709;52.036;5.906;2023-03-20T09:32:25;10.80;99.90
42031;DHT22;27709;52.036;5.906;2023-03-20T09:34:51;10.80;99.90
42031;DHT22;27709;52.036;5.906;2023-03-20T09:37:16;10.90;99.90
42031;DHT22;27709;52.036;5.906;2023-03-20T09:39:42;10.90;99.90
42031;DHT22;27709;52.036;5.906;2023-03-20T09:42:12;11.00;99.90
42031;DHT22;27709;52.036;5.906;2023-03-20T09:44:44;11.00;99.90
42031;DHT22;27709;52.036;5.906;2023-03-20T09:47:31;11.10;99.90
42031;DHT22;27709;52.036;5.906;2023-03-20T09:52:29;11.40;99.90
42031;DHT22;27709;52.036;5.906;2023-03-20T09:55:17;11.40;99.90
42031;DHT22;27709;52.036;5.906;2023-03-20T09:57:42;11.30;99.90
42031;DHT22;27709;52.036;5.906;2023-03-20T10:00:11;11.20;99.90
42031;DHT22;27709;52.036;5.906;2023-03-20T10:02:51;11.20;99.90
42031;DHT22;27709;52.036;5.906;2023-03-20T10:05:28;11.20;99.90
42031;DHT22;27709;52.036;5.906;2023-03-20T10:07:55;11.10;99.90
42031;DHT22;27709;52.036;5.906;2023-03-20T10:10:56;11.10;99.90
42031;DHT22;27709;52.036;5.906;2023-03-20T10:18:36;11.10;99.90
42031;DHT22;27709;52.036;5.906;2023-03-20T10:21:09;11.20;99.90
42031;DHT22;27709;52.036;5.906;2023-03-20T10:23:46;11.30;99.90
42031;DHT22;27709;52.036;5.906;2023-03-20T10:26:15;11.40;99.90
42031;DHT22;27709;52.036;5.906;2023-03-20T10:28:46;11.40;99.90
42031;DHT22;27709;52.036;5.906;2023-03-20T10:31:20;11.40;99.90
42031;DHT22;27709;52.036;5.906;2023-03-20T10:36:26;11.60;99.90
42031;DHT22;27709;52.036;5.906;2023-03-20T10:41:20;11.50;99.90
42031;DHT22;27709;52.036;5.906;2023-03-20T10:43:47;11.50;99.90
42031;DHT22;27709;52.036;5.906;2023-03-20T10:46:14;11.50;99.90
42031;DHT22;27709;52.036;5.906;2023-03-20T10:48:45;11.50;99.90
42031;DHT22;27709;52.036;5.906;2023-03-20T10:51:16;11.60;99.90
42031;DHT22;27709;52.036;5.906;2023-03-20T10:53:48;11.60;99.90
42031;DHT22;27709;52.036;5.906;2023-03-20T10:56:15;11.60;99.90
42031;DHT22;27709;52.036;5.906;2023-03-20T10:58:45;11.50;99.90
42031;DHT22;27709;52.036;5.906;2023-03-20T11:01:11;11.60;99.90
42031;DHT22;27709;52.036;5.906;2023-03-20T11:03:36;11.70;99.90
42031;DHT22;27709;52.036;5.906;2023-03-20T11:06:11;11.70;99.90
42031;DHT22;27709;52.036;5.906;2023-03-20T11:08:40;11.80;99.90
42031;DHT22;27709;52.036;5.906;2023-03-20T11:11:06;11.90;99.90
42031;DHT22;27709;52.036;5.906;2023-03-20T11:13:35;12.00;99.90
42031;DHT22;27709;52.036;5.906;2023-03-20T11:18:52;12.00;99.90
42031;DHT22;27709;52.036;5.906;2023-03-20T11:21:23;12.00;99.90
42031;DHT22;27709;52.036;5.906;2023-03-20T11:23:49;12.00;99.90
42031;DHT22;27709;52.036;5.906;2023-03-20T11:26:16;11.90;99.90
42031;DHT22;27709;52.036;5.906;2023-03-20T11:28:47;11.90;99.90
42031;DHT22;27709;52.036;5.906;2023-03-20T11:36:23;11.80;99.90
42031;DHT22;27709;52.036;5.906;2023-03-20T11:38:50;11.80;99.90
42031;DHT22;27709;52.036;5.906;2023-03-20T11:41:16;11.80;99.90
42031;DHT22;27709;52.036;5.906;2023-03-20T11:43:42;11.70;99.90
42031;DHT22;27709;52.036;5.906;2023-03-20T11:46:08;11.70;99.90
42031;DHT22;27709;52.036;5.906;2023-03-20T11:48:38;11.60;99.90
42031;DHT22;27709;52.036;5.906;2023-03-20T11:56:11;11.70;99.90
42031;DHT22;27709;52.036;5.906;2023-03-20T11:58:57;11.70;99.90
42031;DHT22;27709;52.036;5.906;2023-03-20T12:01:26;11.70;99.90
42031;DHT22;27709;52.036;5.906;2023-03-20T12:03:59;11.80;99.90
42031;DHT22;27709;52.036;5.906;2023-03-20T12:06:38;11.70;99.90
42031;DHT22;27709;52.036;5.906;2023-03-20T12:15:24;11.80;99.90
42031;DHT22;27709;52.036;5.906;2023-03-20T12:19:54;11.70;99.90
42031;DHT22;27709;52.036;5.906;2023-03-20T12:22:33;11.60;99.90
42031;DHT22;27709;52.036;5.906;2023-03-20T12:25:21;11.70;99.90
42031;DHT22;27709;52.036;5.906;2023-03-20T12:27:52;11.70;99.90
42031;DHT22;27709;52.036;5.906;2023-03-20T12:36:14;11.60;99.90
42031;DHT22;27709;52.036;5.906;2023-03-20T12:38:40;11.70;99.90
42031;DHT22;27709;52.036;5.906;2023-03-20T12:41:12;11.70;99.90
42031;DHT22;27709;52.036;5.906;2023-03-20T12:46:27;11.90;99.90
42031;DHT22;27709;52.036;5.906;2023-03-20T12:49:07;11.90;99.90
42031;DHT22;27709;52.036;5.906;2023-03-20T12:59:23;11.90;99.90
42031;DHT22;27709;52.036;5.906;2023-03-20T13:07:25;11.90;99.90
42031;DHT22;27709;52.036;5.906;2023-03-20T13:17:35;11.70;99.90
42031;DHT22;27709;52.036;5.906;2023-03-20T13:20:11;11.80;99.90
42031;DHT22;27709;52.036;5.906;2023-03-20T13:25:29;11.80;99.90
42031;DHT22;27709;52.036;5.906;2023-03-20T13:28:22;11.80;99.90
42031;DHT22;27709;52.036;5.906;2023-03-20T13:30:48;11.90;99.90
42031;DHT22;27709;52.036;5.906;2023-03-20T13:35:58;11.70;99.90
42031;DHT22;27709;52.036;5.906;2023-03-20T13:38:32;11.70;99.90
42031;DHT22;27709;52.036;5.906;2023-03-20T13:41:03;11.60;99.90
42031;DHT22;27709;52.036;5.906;2023-03-20T13:46:05;11.50;99.90
42031;DHT22;27709;52.036;5.906;2023-03-20T13:48:33;11.50;99.90
42031;DHT22;27709;52.036;5.906;2023-03-20T13:51:08;11.30;99.90
42031;DHT22;27709;52.036;5.906;2023-03-20T13:53:43;11.20;99.90
42031;DHT22;27709;52.036;5.906;2023-03-20T13:56:34;11.20;99.90
42031;DHT22;27709;52.036;5.906;2023-03-20T14:01:45;11.30;99.90
42031;DHT22;27709;52.036;5.906;2023-03-20T14:04:17;11.30;99.90
42031;DHT22;27709;52.036;5.906;2023-03-20T14:11:55;11.40;99.90
42031;DHT22;27709;52.036;5.906;2023-03-20T14:14:24;11.30;99.90
42031;DHT22;27709;52.036;5.906;2023-03-20T14:19:35;11.20;99.90
42031;DHT22;27709;52.036;5.906;2023-03-20T14:22:01;11.20;99.90
42031;DHT22;27709;52.036;5.906;2023-03-20T14:24:27;11.10;99.90
42031;DHT22;27709;52.036;5.906;2023-03-20T14:26:56;11.10;99.90
42031;DHT22;27709;52.036;5.906;2023-03-20T14:40:00;11.10;99.90
42031;DHT22;27709;52.036;5.906;2023-03-20T14:50:22;11.00;99.90
42031;DHT22;27709;52.036;5.906;2023-03-20T15:01:03;10.90;99.90
42031;DHT22;27709;52.036;5.906;2023-03-20T15:03:29;10.90;99.90
42031;DHT22;27709;52.036;5.906;2023-03-20T15:05:59;10.90;99.90
42031;DHT22;27709;52.036;5.906;2023-03-20T15:08:28;10.90;99.90
42031;DHT22;27709;52.036;5.906;2023-03-20T15:10:56;10.80;99.90
42031;DHT22;27709;52.036;5.906;2023-03-20T15:13:23;10.90;99.90
42031;DHT22;27709;52.036;5.906;2023-03-20T15:18:19;10.80;99.90
42031;DHT22;27709;52.036;5.906;2023-03-20T15:20:45;10.80;99.90
42031;DHT22;27709;52.036;5.906;2023-03-20T15:23:10;10.90;99.90
42031;DHT22;27709;52.036;5.906;2023-03-20T15:25:42;10.90;99.90
42031;DHT22;27709;52.036;5.906;2023-03-20T15:28:13;10.90;99.90
42031;DHT22;27709;52.036;5.906;2023-03-20T15:30:39;10.90;99.90
42031;DHT22;27709;52.036;5.906;2023-03-20T15:33:05;10.80;99.90
42031;DHT22;27709;52.036;5.906;2023-03-20T15:35:31;10.80;99.90
42031;DHT22;27709;52.036;5.906;2023-03-20T15:38:02;10.80;99.90
42031;DHT22;27709;52.036;5.906;2023-03-20T15:40:29;10.70;99.90
42031;DHT22;27709;52.036;5.906;2023-03-20T15:42:59;10.70;99.90
42031;DHT22;27709;52.036;5.906;2023-03-20T15:45:30;10.70;99.90
42031;DHT22;27709;52.036;5.906;2023-03-20T15:48:00;10.60;99.90
42031;DHT22;27709;52.036;5.906;2023-03-20T15:50:25;10.60;99.90
42031;DHT22;27709;52.036;5.906;2023-03-20T15:52:51;10.60;99.90
42031;DHT22;27709;52.036;5.906;2023-03-20T15:55:18;10.60;99.90
42031;DHT22;27709;52.036;5.906;2023-03-20T15:57:44;10.60;99.90
42031;DHT22;27709;52.036;5.906;2023-03-20T16:02:55;10.60;99.90
42031;DHT22;27709;52.036;5.906;2023-03-20T16:05:22;10.60;99.90
42031;DHT22;27709;52.036;5.906;2023-03-20T16:07:49;10.50;99.90
42031;DHT22;27709;52.036;5.906;2023-03-20T16:10:15;10.50;99.90
42031;DHT22;27709;52.036;5.906;2023-03-20T16:12:45;10.60;99.90
42031;DHT22;27709;52.036;5.906;2023-03-20T16:15:13;10.50;99.90
42031;DHT22;27709;52.036;5.906;2023-03-20T16:17:39;10.50;99.90
42031;DHT22;27709;52.036;5.906;2023-03-20T16:20:04;10.50;99.90
42031;DHT22;27709;52.036;5.906;2023-03-20T16:22:30;10.40;99.90
42031;DHT22;27709;52.036;5.906;2023-03-20T16:24:57;10.40;99.90
42031;DHT22;27709;52.036;5.906;2023-03-20T16:27:25;10.40;99.90
42031;DHT22;27709;52.036;5.906;2023-03-20T16:29:51;10.40;99.90
42031;DHT22;27709;52.036;5.906;2023-03-20T16:32:28;10.30;99.90
42031;DHT22;27709;52.036;5.906;2023-03-20T16:34:56;10.30;99.90
42031;DHT22;27709;52.036;5.906;2023-03-20T16:37:24;10.30;99.90
42031;DHT22;27709;52.036;5.906;2023-03-20T16:40:00;10.30;99.90
42031;DHT22;27709;52.036;5.906;2023-03-20T16:42:26;10.30;99.90
42031;DHT22;27709;52.036;5.906;2023-03-20T16:44:53;10.30;99.90
42031;DHT22;27709;52.036;5.906;2023-03-20T16:47:20;10.30;99.90
42031;DHT22;27709;52.036;5.906;2023-03-20T16:52:11;10.20;99.90
42031;DHT22;27709;52.036;5.906;2023-03-20T16:54:38;10.30;99.90
42031;DHT22;27709;52.036;5.906;2023-03-20T16:57:07;10.20;99.90
42031;DHT22;27709;52.036;5.906;2023-03-20T16:59:36;10.30;99.90
42031;DHT22;27709;52.036;5.906;2023-03-20T17:02:02;10.20;99.90
42031;DHT22;27709;52.036;5.906;2023-03-20T17:04:36;10.20;99.90
42031;DHT22;27709;52.036;5.906;2023-03-20T17:07:16;10.20;99.90
42031;DHT22;27709;52.036;5.906;2023-03-20T17:12:24;10.20;99.90
42031;DHT22;27709;52.036;5.906;2023-03-20T17:14:50;10.20;99.90
42031;DHT22;27709;52.036;5.906;2023-03-20T17:17:16;10.20;99.90
42031;DHT22;27709;52.036;5.906;2023-03-20T17:19:42;10.20;99.90
42031;DHT22;27709;52.036;5.906;2023-03-20T17:22:14;10.20;99.90
42031;DHT22;27709;52.036;5.906;2023-03-20T17:24:40;10.20;99.90
42031;DHT22;27709;52.036;5.906;2023-03-20T17:27:08;10.20;99.90
42031;DHT22;27709;52.036;5.906;2023-03-20T17:29:35;10.20;99.90
42031;DHT22;27709;52.036;5.906;2023-03-20T17:32:00;10.20;99.90
42031;DHT22;27709;52.036;5.906;2023-03-20T17:34:26;10.30;99.90
42031;DHT22;27709;52.036;5.906;2023-03-20T17:36:51;10.20;99.90
42031;DHT22;27709;52.036;5.906;2023-03-20T17:39:17;10.20;99.90
42031;DHT22;27709;52.036;5.906;2023-03-20T17:41:43;10.20;99.90
42031;DHT22;27709;52.036;5.906;2023-03-20T17:44:09;10.30;99.90
42031;DHT22;27709;52.036;5.906;2023-03-20T17:46:34;10.20;99.90
42031;DHT22;27709;52.036;5.906;2023-03-20T17:49:01;10.20;99.90
42031;DHT22;27709;52.036;5.906;2023-03-20T17:51:27;10.20;99.90
42031;DHT22;27709;52.036;5.906;2023-03-20T17:53:52;10.20;99.90
42031;DHT22;27709;52.036;5.906;2023-03-20T17:56:20;10.20;99.90
42031;DHT22;27709;52.036;5.906;2023-03-20T17:58:46;10.20;99.90
42031;DHT22;27709;52.036;5.906;2023-03-20T18:01:11;10.20;99.90
42031;DHT22;27709;52.036;5.906;2023-03-20T18:03:37;10.20;99.90
42031;DHT22;27709;52.036;5.906;2023-03-20T18:06:03;10.20;99.90
42031;DHT22;27709;52.036;5.906;2023-03-20T18:08:29;10.20;99.90
42031;DHT22;27709;52.036;5.906;2023-03-20T18:10:54;10.20;99.90